Terminal Aerodrome Forecast
Issued by NWS

Current Version | Previous Version | Text Only | Print | Product List | Glossary Off
Versions: 1 2 3 4 5 6 7 8 9 10 11 12 13 14 15 16 17 18 19 20 21

000
FTUS41 KPBZ 080500
TAFHLG
TAF
KHLG 080526Z 0806/0906 22008KT P6SM SCT060
     FM080900 20005KT 4SM BR BKN015
     FM081600 21012G26KT P6SM -SHRA VCTS BKN040CB
     FM090100 22010KT P6SM SCT050 BKN100=

USA.gov is the U.S. government's official web portal to all federal, state and local government web resources and services.